createdAt,value
2023-03-30T00:01:33.440Z,97751.00
2023-03-30T00:04:02.932Z,97750.41
2023-03-30T00:06:34.292Z,97756.75
2023-03-30T00:09:06.263Z,97746.25
2023-03-30T00:11:34.834Z,97741.84
2023-03-30T00:14:03.112Z,97739.38
2023-03-30T00:16:31.605Z,97725.63
2023-03-30T00:19:00.523Z,97729.50
2023-03-30T00:21:29.538Z,97727.53
2023-03-30T00:23:59.240Z,97727.66
2023-03-30T00:26:28.551Z,97734.47
2023-03-30T00:28:56.805Z,97729.00
2023-03-30T00:31:25.271Z,97718.50
2023-03-30T00:33:53.684Z,97714.25
2023-03-30T00:36:22.587Z,97713.69
2023-03-30T00:38:50.944Z,97710.84
2023-03-30T00:41:20.695Z,97708.59
2023-03-30T00:43:59.907Z,97708.88
2023-03-30T00:46:28.879Z,97709.94
2023-03-30T00:48:58.951Z,97697.25
2023-03-30T00:51:28.450Z,97694.66
2023-03-30T00:53:58.280Z,97702.13
2023-03-30T00:56:30.797Z,97708.88
2023-03-30T00:58:59.416Z,97702.72
2023-03-30T01:01:29.688Z,97703.56
2023-03-30T01:04:00.968Z,97696.22
2023-03-30T01:06:31.756Z,97693.22
2023-03-30T01:09:00.232Z,97691.75
2023-03-30T01:11:30.180Z,97681.72
2023-03-30T01:14:02.050Z,97685.09
2023-03-30T01:16:35.244Z,97690.47
2023-03-30T01:19:19.519Z,97701.28
2023-03-30T01:22:31.016Z,97711.91
2023-03-30T01:25:26.357Z,97710.38
2023-03-30T01:28:16.944Z,97701.88
2023-03-30T01:31:09.108Z,97711.56
2023-03-30T01:34:17.489Z,97682.75
2023-03-30T01:37:17.177Z,97672.22
2023-03-30T01:39:53.794Z,97672.31
2023-03-30T01:42:24.117Z,97664.25
2023-03-30T01:44:57.222Z,97672.69
2023-03-30T01:47:31.485Z,97667.53
2023-03-30T01:50:03.177Z,97651.28
2023-03-30T01:52:37.343Z,97651.16
2023-03-30T01:55:11.423Z,97650.38
2023-03-30T01:57:44.748Z,97640.97
2023-03-30T02:00:15.788Z,97641.72
2023-03-30T02:02:48.075Z,97636.59
2023-03-30T02:05:18.560Z,97640.25
2023-03-30T02:07:51.449Z,97641.25
2023-03-30T02:10:22.927Z,97640.59
2023-03-30T02:12:51.745Z,97638.03
2023-03-30T02:15:20.655Z,97641.97
2023-03-30T02:17:49.354Z,97631.00
2023-03-30T02:20:19.066Z,97641.72
2023-03-30T02:22:47.479Z,97636.97
2023-03-30T02:25:15.942Z,97632.91
2023-03-30T02:27:46.008Z,97628.31
2023-03-30T02:30:16.432Z,97619.78
2023-03-30T02:32:48.321Z,97614.38
2023-03-30T02:35:37.338Z,97608.69
2023-03-30T02:38:32.850Z,97615.19
2023-03-30T02:41:10.343Z,97622.63
2023-03-30T02:43:46.430Z,97631.25
2023-03-30T02:46:23.869Z,97631.31
2023-03-30T02:49:02.071Z,97638.16
2023-03-30T02:51:41.280Z,97634.16
2023-03-30T02:54:23.230Z,97628.72
2023-03-30T02:57:14.452Z,97620.03
2023-03-30T02:59:49.468Z,97629.97
2023-03-30T03:02:21.976Z,97624.16
2023-03-30T03:04:57.728Z,97610.44
2023-03-30T03:07:45.151Z,97604.28
2023-03-30T03:10:15.057Z,97617.09
2023-03-30T03:12:43.837Z,97622.25
2023-03-30T03:15:14.210Z,97629.78
2023-03-30T03:17:56.985Z,97636.00
2023-03-30T03:20:30.617Z,97627.94
2023-03-30T03:23:00.002Z,97616.72
2023-03-30T03:25:29.877Z,97610.50
2023-03-30T03:28:01.374Z,97600.25
2023-03-30T03:30:38.429Z,97603.44
2023-03-30T03:33:11.470Z,97596.28
2023-03-30T03:35:45.916Z,97588.41
2023-03-30T03:38:15.180Z,97585.59
2023-03-30T03:40:44.538Z,97592.53
2023-03-30T03:43:12.858Z,97599.13
2023-03-30T03:45:42.784Z,97598.13
2023-03-30T03:48:11.138Z,97591.97
2023-03-30T03:50:47.037Z,97593.53
2023-03-30T03:53:15.374Z,97592.78
2023-03-30T03:55:44.102Z,97597.75
2023-03-30T03:58:12.418Z,97593.53
2023-03-30T04:00:42.232Z,97599.50
2023-03-30T04:03:12.451Z,97592.16
2023-03-30T04:05:41.866Z,97600.31
2023-03-30T04:08:12.009Z,97606.34
2023-03-30T04:10:42.697Z,97595.50
2023-03-30T04:13:48.696Z,97598.13
2023-03-30T04:16:37.542Z,97590.78
2023-03-30T04:19:31.659Z,97589.09
2023-03-30T04:22:24.363Z,97572.03
2023-03-30T04:25:23.008Z,97564.28
2023-03-30T04:28:11.775Z,97571.16
2023-03-30T04:30:59.694Z,97573.69
2023-03-30T04:33:51.959Z,97585.78
2023-03-30T04:36:43.534Z,97586.50
2023-03-30T04:39:30.487Z,97598.28
2023-03-30T04:42:34.451Z,97596.56
2023-03-30T04:45:21.221Z,97579.47
2023-03-30T04:48:15.706Z,97578.75
2023-03-30T04:51:14.817Z,97584.09
2023-03-30T04:54:12.655Z,97586.84
2023-03-30T04:57:10.243Z,97575.94
2023-03-30T04:59:57.246Z,97572.78
2023-03-30T05:02:28.507Z,97577.25
2023-03-30T05:05:15.530Z,97590.28
2023-03-30T05:08:03.811Z,97596.38
2023-03-30T05:10:55.166Z,97586.25
2023-03-30T05:13:43.400Z,97583.81
2023-03-30T05:16:34.313Z,97587.44
2023-03-30T05:19:15.585Z,97591.97
2023-03-30T05:22:06.850Z,97590.63
2023-03-30T05:24:53.407Z,97576.13
2023-03-30T05:27:44.660Z,97583.91
2023-03-30T05:30:36.467Z,97584.69
2023-03-30T05:33:28.473Z,97587.41
2023-03-30T05:36:21.302Z,97596.16
2023-03-30T05:39:09.914Z,97591.22
2023-03-30T05:42:05.794Z,97584.59
2023-03-30T05:45:08.301Z,97571.09
2023-03-30T05:47:39.742Z,97561.78
2023-03-30T05:50:26.778Z,97574.00
2023-03-30T05:52:59.928Z,97581.06
2023-03-30T05:55:48.270Z,97589.13
2023-03-30T05:58:21.178Z,97576.41
2023-03-30T06:01:16.806Z,97569.88
2023-03-30T06:03:51.676Z,97576.25
2023-03-30T06:06:20.693Z,97569.44
2023-03-30T06:08:52.218Z,97582.47
2023-03-30T06:11:24.004Z,97579.06
2023-03-30T06:14:04.212Z,97585.13
2023-03-30T06:16:33.022Z,97596.50
2023-03-30T06:19:02.176Z,97594.84
2023-03-30T06:21:32.228Z,97591.03
2023-03-30T06:24:23.816Z,97589.31
2023-03-30T06:26:52.422Z,97576.56
2023-03-30T06:29:22.242Z,97567.34
2023-03-30T06:31:51.455Z,97563.00
2023-03-30T06:34:43.144Z,97558.03
2023-03-30T06:37:13.811Z,97559.78
2023-03-30T06:39:42.104Z,97563.03
2023-03-30T06:42:10.770Z,97544.88
2023-03-30T06:44:59.463Z,97551.53
2023-03-30T06:47:29.099Z,97552.63
2023-03-30T06:49:57.543Z,97565.25
2023-03-30T06:52:46.064Z,97567.22
2023-03-30T06:55:16.638Z,97552.88
2023-03-30T06:57:45.293Z,97561.63
2023-03-30T07:00:16.636Z,97557.47
2023-03-30T07:03:04.525Z,97570.09
2023-03-30T07:05:53.821Z,97575.28
2023-03-30T07:08:35.938Z,97575.28
2023-03-30T07:11:05.334Z,97579.59
2023-03-30T07:13:34.990Z,97567.72
2023-03-30T07:16:05.258Z,97558.47
2023-03-30T07:18:35.112Z,97565.50
2023-03-30T07:21:04.865Z,97564.78
2023-03-30T07:23:45.432Z,97559.63
2023-03-30T07:26:25.933Z,97546.66
2023-03-30T07:29:00.434Z,97564.59
2023-03-30T07:31:31.130Z,97568.16
2023-03-30T07:33:59.602Z,97562.00
2023-03-30T07:36:38.849Z,97557.66
2023-03-30T07:39:08.376Z,97550.91
2023-03-30T07:41:39.358Z,97547.59
2023-03-30T07:44:08.236Z,97544.28
2023-03-30T07:46:39.306Z,97539.38
2023-03-30T07:49:09.540Z,97549.72
2023-03-30T07:51:38.491Z,97545.41
2023-03-30T07:54:17.305Z,97537.78
2023-03-30T07:57:00.970Z,97538.03
2023-03-30T07:59:29.883Z,97534.66
2023-03-30T08:02:07.921Z,97546.81
2023-03-30T08:04:48.069Z,97546.78
2023-03-30T08:07:22.022Z,97551.97
2023-03-30T08:09:55.964Z,97545.06
2023-03-30T08:12:24.372Z,97533.00
2023-03-30T08:14:53.193Z,97527.00
2023-03-30T08:17:23.283Z,97517.53
2023-03-30T08:19:52.954Z,97501.94
2023-03-30T08:22:21.309Z,97506.19
2023-03-30T08:24:49.753Z,97521.72
2023-03-30T08:27:18.759Z,97514.91
2023-03-30T08:29:47.208Z,97512.16
2023-03-30T08:32:15.505Z,97510.25
2023-03-30T08:34:46.724Z,97497.16
2023-03-30T08:37:16.968Z,97494.31
2023-03-30T08:39:45.559Z,97488.84
2023-03-30T08:42:33.931Z,97489.22
2023-03-30T08:45:05.643Z,97499.41
2023-03-30T08:47:38.760Z,97493.19
2023-03-30T08:50:13.588Z,97490.56
2023-03-30T08:52:43.578Z,97495.09
2023-03-30T08:55:20.942Z,97484.44
2023-03-30T08:57:53.722Z,97481.94
2023-03-30T09:00:30.092Z,97483.13
2023-03-30T09:03:05.677Z,97470.34
2023-03-30T09:05:40.942Z,97464.38
2023-03-30T09:08:13.706Z,97461.91
2023-03-30T09:10:44.835Z,97461.69
2023-03-30T09:13:15.751Z,97464.91
2023-03-30T09:15:50.762Z,97463.03
2023-03-30T09:18:21.912Z,97445.38
2023-03-30T09:20:53.531Z,97448.72
2023-03-30T09:23:22.727Z,97457.69
2023-03-30T09:28:32.939Z,97442.09
2023-03-30T09:31:04.243Z,97453.66
2023-03-30T09:33:41.180Z,97453.44
2023-03-30T09:36:16.900Z,97451.00
2023-03-30T09:38:45.801Z,97446.94
2023-03-30T09:41:32.819Z,97449.44
2023-03-30T09:44:01.994Z,97446.75
2023-03-30T09:46:31.291Z,97438.63
2023-03-30T09:49:15.951Z,97437.50
2023-03-30T09:52:03.741Z,97452.44
2023-03-30T09:54:39.063Z,97455.03
2023-03-30T09:57:07.580Z,97447.09
2023-03-30T09:59:37.508Z,97445.66
2023-03-30T10:02:19.451Z,97446.09
2023-03-30T10:04:58.214Z,97451.59
2023-03-30T10:07:30.273Z,97448.34
2023-03-30T10:10:00.612Z,97434.81
2023-03-30T10:12:29.977Z,97429.53
2023-03-30T10:14:59.706Z,97434.00
2023-03-30T10:17:28.560Z,97434.28
2023-03-30T10:20:36.218Z,97431.94
2023-03-30T10:23:09.093Z,97431.34
2023-03-30T10:25:38.542Z,97418.81
2023-03-30T10:28:07.337Z,97433.53
2023-03-30T10:30:35.981Z,97420.84
2023-03-30T10:33:04.856Z,97413.25
2023-03-30T10:35:36.263Z,97397.31
2023-03-30T10:38:06.941Z,97394.50
2023-03-30T10:40:37.812Z,97400.25
2023-03-30T10:43:08.673Z,97403.50
2023-03-30T10:45:40.614Z,97383.97
2023-03-30T10:48:21.795Z,97375.69
2023-03-30T10:50:55.632Z,97360.72
2023-03-30T10:53:41.306Z,97365.19
2023-03-30T10:56:22.963Z,97369.53
2023-03-30T10:59:06.454Z,97378.56
2023-03-30T11:01:47.591Z,97377.72
2023-03-30T11:04:24.277Z,97370.88
2023-03-30T11:06:54.827Z,97377.75
2023-03-30T11:09:28.688Z,97386.38
2023-03-30T11:11:59.890Z,97405.16
2023-03-30T11:14:45.218Z,97410.72
2023-03-30T11:17:18.608Z,97432.81
2023-03-30T11:23:01.404Z,97438.50
2023-03-30T11:25:33.951Z,97436.78
2023-03-30T11:28:12.007Z,97434.59
2023-03-30T11:30:40.923Z,97440.69
2023-03-30T11:33:17.911Z,97426.91
2023-03-30T11:35:48.391Z,97416.31
2023-03-30T11:38:19.874Z,97407.38
2023-03-30T11:40:52.833Z,97418.00
2023-03-30T11:43:23.578Z,97419.94
2023-03-30T11:46:04.021Z,97412.50
2023-03-30T11:49:02.636Z,97400.63
2023-03-30T11:51:49.742Z,97383.66
2023-03-30T11:54:46.954Z,97376.69
2023-03-30T11:57:28.421Z,97370.22
2023-03-30T12:00:09.828Z,97379.56
2023-03-30T12:02:44.979Z,97367.75
2023-03-30T12:05:18.949Z,97340.84
2023-03-30T12:07:52.170Z,97327.44
2023-03-30T12:10:25.021Z,97322.38
2023-03-30T12:12:56.335Z,97343.88
2023-03-30T12:15:34.448Z,97322.72
2023-03-30T12:18:07.703Z,97335.66
2023-03-30T12:20:41.084Z,97324.56
2023-03-30T12:23:24.324Z,97324.84
2023-03-30T12:26:08.358Z,97322.28
2023-03-30T12:31:20.422Z,97292.91
2023-03-30T12:33:50.116Z,97299.88
2023-03-30T12:36:34.226Z,97303.22
2023-03-30T12:39:03.991Z,97290.75
2023-03-30T12:41:41.635Z,97289.13
2023-03-30T12:44:35.390Z,97264.13
2023-03-30T12:47:33.699Z,97249.34
2023-03-30T12:50:12.451Z,97232.13
2023-03-30T12:52:50.126Z,97233.19
2023-03-30T12:55:33.084Z,97230.16
2023-03-30T12:58:36.684Z,97224.81
2023-03-30T13:01:28.379Z,97230.94
2023-03-30T13:04:00.361Z,97240.25
2023-03-30T13:06:33.025Z,97229.28
2023-03-30T13:09:32.570Z,97201.75
2023-03-30T13:12:32.493Z,97200.25
2023-03-30T13:15:22.288Z,97206.88
2023-03-30T13:18:01.604Z,97217.28
2023-03-30T13:20:34.199Z,97198.66
2023-03-30T13:23:07.779Z,97195.91
2023-03-30T13:25:41.688Z,97196.34
2023-03-30T13:28:35.026Z,97177.41
2023-03-30T13:31:10.998Z,97171.66
2023-03-30T13:33:46.259Z,97162.63
2023-03-30T13:36:19.858Z,97163.88
2023-03-30T13:39:04.431Z,97163.88
2023-03-30T13:41:52.455Z,97149.19
2023-03-30T13:44:37.393Z,97149.09
2023-03-30T13:47:14.761Z,97146.22
2023-03-30T13:49:51.666Z,97139.16
2023-03-30T13:52:29.000Z,97131.13
2023-03-30T13:54:59.969Z,97137.81
2023-03-30T13:57:32.831Z,97134.84
2023-03-30T14:00:08.264Z,97119.44
2023-03-30T14:02:41.241Z,97112.91
2023-03-30T14:05:18.078Z,97100.72
2023-03-30T14:07:47.412Z,97103.19
2023-03-30T14:10:18.024Z,97111.00
2023-03-30T14:12:47.597Z,97114.38
2023-03-30T14:15:22.413Z,97099.16
2023-03-30T14:17:52.590Z,97104.78
2023-03-30T14:20:37.474Z,97099.59
2023-03-30T14:23:09.060Z,97096.31
2023-03-30T14:25:41.092Z,97090.00
2023-03-30T14:28:14.677Z,97082.78
2023-03-30T14:30:51.112Z,97097.72
2023-03-30T14:33:20.622Z,97093.88
2023-03-30T14:35:52.319Z,97088.72
2023-03-30T14:38:24.051Z,97082.22
2023-03-30T14:40:53.738Z,97073.19
2023-03-30T14:43:24.721Z,97067.22
2023-03-30T14:45:54.221Z,97066.13
2023-03-30T14:48:29.606Z,97055.16
2023-03-30T14:51:02.211Z,97054.78
2023-03-30T14:53:32.038Z,97055.72
2023-03-30T14:56:11.094Z,97052.75
2023-03-30T14:58:42.245Z,97045.47
2023-03-30T15:01:44.551Z,97043.53
2023-03-30T15:04:32.210Z,97045.34
2023-03-30T15:07:03.784Z,97047.56
2023-03-30T15:09:39.520Z,97052.72
2023-03-30T15:12:09.273Z,97063.09
2023-03-30T15:14:41.935Z,97051.81
2023-03-30T15:17:14.987Z,97054.72
2023-03-30T15:19:45.513Z,97058.63
2023-03-30T15:22:22.550Z,97058.59
2023-03-30T15:24:51.574Z,97063.19
2023-03-30T15:27:27.692Z,97069.25
2023-03-30T15:30:02.587Z,97061.19
2023-03-30T15:32:39.213Z,97059.13
2023-03-30T15:35:26.408Z,97057.69
2023-03-30T15:38:13.148Z,97057.25
2023-03-30T15:40:50.460Z,97064.66
2023-03-30T15:43:22.123Z,97057.88
2023-03-30T15:45:57.317Z,97056.59
2023-03-30T15:48:32.397Z,97062.00
2023-03-30T15:51:05.910Z,97052.34
2023-03-30T15:53:41.203Z,97058.53
2023-03-30T15:56:14.857Z,97064.38
2023-03-30T15:58:44.408Z,97061.25
2023-03-30T16:01:14.946Z,97063.03
2023-03-30T16:03:51.861Z,97062.09
2023-03-30T16:06:21.480Z,97076.56
2023-03-30T16:08:51.209Z,97065.72
2023-03-30T16:11:20.810Z,97064.31
2023-03-30T16:13:50.218Z,97064.44
2023-03-30T16:16:20.319Z,97063.63
2023-03-30T16:18:49.035Z,97075.16
2023-03-30T16:21:19.018Z,97088.56
2023-03-30T16:23:47.432Z,97090.84
2023-03-30T16:26:17.633Z,97097.91
2023-03-30T16:28:46.607Z,97096.16
2023-03-30T16:31:19.384Z,97102.09
2023-03-30T16:33:47.930Z,97107.22
2023-03-30T16:36:18.077Z,97116.22
2023-03-30T16:38:50.838Z,97112.34
2023-03-30T16:41:23.547Z,97115.56
2023-03-30T16:43:54.482Z,97107.69
2023-03-30T16:46:24.529Z,97103.16
2023-03-30T16:48:53.418Z,97110.50
2023-03-30T16:51:24.258Z,97104.94
2023-03-30T16:53:53.214Z,97121.28
2023-03-30T16:56:24.572Z,97129.63
2023-03-30T16:58:53.624Z,97137.28
2023-03-30T17:01:22.243Z,97139.25
2023-03-30T17:03:52.036Z,97139.00
2023-03-30T17:06:23.145Z,97136.16
2023-03-30T17:08:53.438Z,97151.84
2023-03-30T17:11:26.268Z,97156.03
2023-03-30T17:13:55.253Z,97155.91
2023-03-30T17:16:27.857Z,97150.78
2023-03-30T17:18:58.027Z,97144.69
2023-03-30T17:21:27.569Z,97141.63
2023-03-30T17:24:00.017Z,97144.38
2023-03-30T17:26:39.943Z,97136.06
2023-03-30T17:29:11.545Z,97142.13
2023-03-30T17:31:46.337Z,97155.56
2023-03-30T17:34:16.681Z,97142.56
2023-03-30T17:36:48.688Z,97140.69
2023-03-30T17:39:25.428Z,97152.88
2023-03-30T17:41:56.704Z,97140.44
2023-03-30T17:44:28.065Z,97131.66
2023-03-30T17:46:59.917Z,97130.03
2023-03-30T17:49:28.921Z,97128.19
2023-03-30T17:51:58.447Z,97138.06
2023-03-30T17:54:29.635Z,97150.03
2023-03-30T17:57:05.141Z,97144.09
2023-03-30T17:59:35.519Z,97149.84
2023-03-30T18:02:07.199Z,97157.00
2023-03-30T18:04:38.054Z,97166.06
2023-03-30T18:07:12.562Z,97179.47
2023-03-30T18:09:43.845Z,97187.25
2023-03-30T18:12:16.788Z,97196.44
2023-03-30T18:14:47.538Z,97200.13
2023-03-30T18:17:19.171Z,97209.47
2023-03-30T18:19:49.536Z,97215.72
2023-03-30T18:22:20.581Z,97222.38
2023-03-30T18:25:00.136Z,97229.84
2023-03-30T18:27:34.736Z,97234.69
2023-03-30T18:30:04.891Z,97247.28
2023-03-30T18:32:46.579Z,97241.88
2023-03-30T18:35:19.376Z,97260.81
2023-03-30T18:37:52.281Z,97253.22
2023-03-30T18:40:26.928Z,97250.88
2023-03-30T18:43:00.229Z,97249.31
2023-03-30T18:45:32.753Z,97253.84
2023-03-30T18:48:07.134Z,97258.50
2023-03-30T18:50:40.410Z,97248.19
2023-03-30T18:53:16.832Z,97262.69
2023-03-30T18:55:48.842Z,97260.09
2023-03-30T18:58:23.768Z,97258.50
2023-03-30T19:00:55.561Z,97264.13
2023-03-30T19:03:44.046Z,97271.84
2023-03-30T19:06:16.748Z,97260.88
2023-03-30T19:08:49.976Z,97244.56
2023-03-30T19:11:23.961Z,97233.53
2023-03-30T19:14:00.488Z,97219.34
2023-03-30T19:16:33.119Z,97223.47
2023-03-30T19:19:06.728Z,97226.56
2023-03-30T19:21:37.774Z,97233.91
2023-03-30T19:24:10.040Z,97243.31
2023-03-30T19:26:43.054Z,97250.16
2023-03-30T19:29:18.852Z,97249.84
2023-03-30T19:31:54.708Z,97237.53
2023-03-30T19:34:33.693Z,97221.28
2023-03-30T19:37:06.406Z,97216.44
2023-03-30T19:39:38.313Z,97208.88
2023-03-30T19:42:09.321Z,97214.06
2023-03-30T19:44:49.032Z,97220.16
2023-03-30T19:47:20.809Z,97221.78
2023-03-30T19:49:52.261Z,97221.91
2023-03-30T19:52:23.784Z,97220.41
2023-03-30T19:54:55.179Z,97223.19
2023-03-30T19:57:27.701Z,97237.94
2023-03-30T20:00:00.130Z,97246.50
2023-03-30T20:02:32.501Z,97255.16
2023-03-30T20:05:03.929Z,97260.34
2023-03-30T20:07:35.883Z,97272.31
2023-03-30T20:10:06.157Z,97265.44
2023-03-30T20:12:37.482Z,97272.47
2023-03-30T20:15:13.058Z,97277.78
2023-03-30T20:17:44.283Z,97277.88
2023-03-30T20:20:23.863Z,97267.31
2023-03-30T20:22:56.730Z,97272.53
2023-03-30T20:25:26.486Z,97276.09
2023-03-30T20:27:55.391Z,97270.22
2023-03-30T20:30:26.628Z,97267.75
2023-03-30T20:33:06.909Z,97269.53
2023-03-30T20:35:37.504Z,97273.94
2023-03-30T20:38:08.601Z,97279.97
2023-03-30T20:40:38.192Z,97280.00
2023-03-30T20:43:11.732Z,97280.91
2023-03-30T20:45:48.691Z,97270.66
2023-03-30T20:48:27.123Z,97261.16
2023-03-30T20:50:56.044Z,97256.00
2023-03-30T20:53:31.187Z,97260.34
2023-03-30T20:56:00.228Z,97271.56
2023-03-30T20:58:32.468Z,97266.50
2023-03-30T21:01:13.215Z,97269.97
2023-03-30T21:03:44.421Z,97271.72
2023-03-30T21:06:18.168Z,97270.91
2023-03-30T21:08:48.139Z,97273.47
2023-03-30T21:11:16.526Z,97263.16
2023-03-30T21:13:44.844Z,97263.09
2023-03-30T21:16:14.651Z,97258.84
2023-03-30T21:18:43.198Z,97258.06
2023-03-30T21:21:11.651Z,97259.81
2023-03-30T21:23:40.268Z,97263.22
2023-03-30T21:26:09.281Z,97273.59
2023-03-30T21:28:38.546Z,97264.16
2023-03-30T21:31:08.733Z,97264.22
2023-03-30T21:33:38.698Z,97262.53
2023-03-30T21:36:08.119Z,97267.75
2023-03-30T21:38:37.118Z,97273.00
2023-03-30T21:41:07.459Z,97277.31
2023-03-30T21:43:37.106Z,97282.50
2023-03-30T21:46:08.508Z,97278.19
2023-03-30T21:48:40.360Z,97286.78
2023-03-30T21:51:11.681Z,97279.78
2023-03-30T21:53:40.544Z,97280.84
2023-03-30T21:56:09.550Z,97277.47
2023-03-30T21:58:38.676Z,97287.00
2023-03-30T22:01:11.761Z,97285.25
2023-03-30T22:03:43.372Z,97289.53
2023-03-30T22:06:13.357Z,97283.56
2023-03-30T22:08:41.976Z,97281.03
2023-03-30T22:11:12.965Z,97282.69
2023-03-30T22:13:41.457Z,97268.09
2023-03-30T22:16:13.333Z,97269.84
2023-03-30T22:18:44.055Z,97279.19
2023-03-30T22:21:15.468Z,97266.38
2023-03-30T22:23:43.899Z,97281.81
2023-03-30T22:26:12.706Z,97281.84
2023-03-30T22:28:41.251Z,97284.44
2023-03-30T22:31:09.754Z,97283.56
2023-03-30T22:33:38.387Z,97278.44
2023-03-30T22:36:17.295Z,97283.59
2023-03-30T22:38:45.912Z,97285.34
2023-03-30T22:41:14.272Z,97276.75
2023-03-30T22:43:42.613Z,97283.66
2023-03-30T22:46:11.448Z,97277.69
2023-03-30T22:48:41.732Z,97286.28
2023-03-30T22:51:14.335Z,97290.56
2023-03-30T22:53:42.913Z,97272.50
2023-03-30T22:56:11.882Z,97273.38
2023-03-30T22:58:40.254Z,97269.94
2023-03-30T23:01:10.376Z,97257.94
2023-03-30T23:03:39.615Z,97265.66
2023-03-30T23:06:09.353Z,97273.38
2023-03-30T23:08:40.060Z,97273.41
2023-03-30T23:11:08.449Z,97276.81
2023-03-30T23:13:38.279Z,97278.56
2023-03-30T23:16:08.377Z,97273.41
2023-03-30T23:18:37.107Z,97275.09
2023-03-30T23:21:06.998Z,97274.25
2023-03-30T23:23:35.979Z,97272.53
2023-03-30T23:26:09.008Z,97265.66
2023-03-30T23:28:39.100Z,97263.06
2023-03-30T23:31:08.466Z,97268.19
2023-03-30T23:33:37.586Z,97267.31
2023-03-30T23:36:07.593Z,97263.84
2023-03-30T23:38:37.619Z,97253.56
2023-03-30T23:41:07.948Z,97264.72
2023-03-30T23:43:36.490Z,97274.19
2023-03-30T23:46:05.534Z,97255.28
2023-03-30T23:48:34.191Z,97261.28
2023-03-30T23:51:02.515Z,97269.03
2023-03-30T23:53:30.952Z,97256.97
2023-03-30T23:55:59.855Z,97250.97
2023-03-30T23:58:31.151Z,97250.94
